createdAt,value
2022-08-23T00:02:29.554Z,27.10
2022-08-23T00:05:09.104Z,28.50
2022-08-23T00:07:42.831Z,28.90
2022-08-23T00:10:15.752Z,27.70
2022-08-23T00:12:47.412Z,26.80
2022-08-23T00:15:20.892Z,28.50
2022-08-23T00:17:50.717Z,26.70
2022-08-23T00:20:20.837Z,32.30
2022-08-23T00:22:52.283Z,25.80
2022-08-23T00:25:22.092Z,29.10
2022-08-23T00:27:52.079Z,28.50
2022-08-23T00:30:21.774Z,29.60
2022-08-23T00:32:53.468Z,29.80
2022-08-23T00:35:26.196Z,27.10
2022-08-23T00:38:30.412Z,26.40
2022-08-23T00:40:53.629Z,26.90
2022-08-23T00:43:57.874Z,29.30
2022-08-23T00:47:04.501Z,24.90
2022-08-23T00:49:38.971Z,26.80
2022-08-23T00:52:12.377Z,28.00
2022-08-23T00:54:45.676Z,28.10
2022-08-23T00:57:19.397Z,28.00
2022-08-23T00:59:48.874Z,27.60
2022-08-23T01:02:19.035Z,28.60
2022-08-23T01:04:55.853Z,30.00
2022-08-23T01:07:36.419Z,27.60
2022-08-23T01:10:20.953Z,31.00
2022-08-23T01:13:01.623Z,27.00
2022-08-23T01:15:42.177Z,29.50
2022-08-23T01:18:14.501Z,27.40
2022-08-23T01:21:17.037Z,28.70
2022-08-23T01:23:53.634Z,30.30
2022-08-23T01:26:25.099Z,29.60
2022-08-23T01:28:55.355Z,28.20
2022-08-23T01:31:25.808Z,26.60
2022-08-23T01:34:05.992Z,33.10
2022-08-23T01:36:37.720Z,26.70
2022-08-23T01:39:08.313Z,26.70
2022-08-23T01:41:38.902Z,27.80
2022-08-23T01:44:09.225Z,27.10
2022-08-23T01:46:38.945Z,26.50
2022-08-23T01:49:08.493Z,31.10
2022-08-23T01:51:38.800Z,30.90
2022-08-23T01:54:08.348Z,27.00
2022-08-23T01:56:39.802Z,28.20
2022-08-23T01:59:10.367Z,28.70
2022-08-23T02:01:39.056Z,28.30
2022-08-23T02:04:10.398Z,27.70
2022-08-23T02:06:42.014Z,31.00
2022-08-23T02:09:17.257Z,30.60
2022-08-23T02:11:50.137Z,32.90
2022-08-23T02:14:21.538Z,28.20
2022-08-23T02:17:03.420Z,30.90
2022-08-23T02:19:36.972Z,26.50
2022-08-23T02:22:08.568Z,32.30
2022-08-23T02:24:43.029Z,27.10
2022-08-23T02:27:17.147Z,25.20
2022-08-23T02:29:49.771Z,26.10
2022-08-23T02:32:23.271Z,26.50
2022-08-23T02:35:04.870Z,32.10
2022-08-23T02:37:37.407Z,29.80
2022-08-23T02:40:08.371Z,29.70
2022-08-23T02:42:36.162Z,26.90
2022-08-23T02:45:05.820Z,27.10
2022-08-23T02:47:33.556Z,24.30
2022-08-23T02:50:01.307Z,24.20
2022-08-23T02:52:32.257Z,25.30
2022-08-23T02:55:00.899Z,27.70
2022-08-23T02:57:31.701Z,28.20
2022-08-23T03:00:01.320Z,26.20
2022-08-23T03:02:31.801Z,28.80
2022-08-23T03:05:03.087Z,27.40
2022-08-23T03:07:32.727Z,25.70
2022-08-23T03:10:05.944Z,26.90
2022-08-23T03:12:35.698Z,27.40
2022-08-23T03:15:06.517Z,27.70
2022-08-23T03:17:37.267Z,25.90
2022-08-23T03:20:07.831Z,27.80
2022-08-23T03:22:37.895Z,28.00
2022-08-23T03:25:08.367Z,35.00
2022-08-23T03:27:44.780Z,26.40
2022-08-23T03:30:19.695Z,28.50
2022-08-23T03:32:49.558Z,29.50
2022-08-23T03:35:19.796Z,29.20
2022-08-23T03:37:47.735Z,27.60
2022-08-23T03:40:15.593Z,25.30
2022-08-23T03:42:45.392Z,28.30
2022-08-23T03:45:13.344Z,34.30
2022-08-23T03:47:41.517Z,27.60
2022-08-23T03:50:09.740Z,31.40
2022-08-23T03:52:41.245Z,30.10
2022-08-23T03:55:09.282Z,25.80
2022-08-23T03:57:38.757Z,33.30
2022-08-23T04:00:11.135Z,28.90
2022-08-23T04:02:38.906Z,26.00
2022-08-23T04:05:12.698Z,26.70
2022-08-23T04:07:42.241Z,26.20
2022-08-23T04:10:16.624Z,25.60
2022-08-23T04:12:44.730Z,29.60
2022-08-23T04:15:14.737Z,25.80
2022-08-23T04:17:44.215Z,27.50
2022-08-23T04:20:13.105Z,28.10
2022-08-23T04:22:41.073Z,28.40
2022-08-23T04:25:32.366Z,33.90
2022-08-23T04:28:02.928Z,30.30
2022-08-23T04:30:33.559Z,27.20
2022-08-23T04:33:01.883Z,24.60
2022-08-23T04:35:32.593Z,24.40
2022-08-23T04:38:02.304Z,27.70
2022-08-23T04:40:49.995Z,27.70
2022-08-23T04:43:19.644Z,27.10
2022-08-23T04:45:49.083Z,25.90
2022-08-23T04:48:20.432Z,26.30
2022-08-23T04:50:48.173Z,26.20
2022-08-23T04:53:18.089Z,28.00
2022-08-23T04:55:46.003Z,29.10
2022-08-23T04:58:14.996Z,26.50
2022-08-23T05:00:47.169Z,25.30
2022-08-23T05:03:20.341Z,25.50
2022-08-23T05:05:49.993Z,25.80
2022-08-23T05:08:20.008Z,24.40
2022-08-23T05:10:47.796Z,26.00
2022-08-23T05:13:15.512Z,23.80
2022-08-23T05:15:47.066Z,24.70
2022-08-23T05:18:16.734Z,24.20
2022-08-23T05:20:47.000Z,27.70
2022-08-23T05:23:16.827Z,23.30
2022-08-23T05:25:52.527Z,26.60
2022-08-23T05:28:31.755Z,27.10
2022-08-23T05:31:02.604Z,29.60
2022-08-23T05:33:34.868Z,27.40
2022-08-23T05:36:06.057Z,25.10
2022-08-23T05:38:35.737Z,27.90
2022-08-23T05:41:05.245Z,25.80
2022-08-23T05:43:35.673Z,26.80
2022-08-23T05:46:19.899Z,26.50
2022-08-23T05:48:53.256Z,28.00
2022-08-23T05:51:29.052Z,28.00
2022-08-23T05:54:05.505Z,29.90
2022-08-23T05:56:39.034Z,27.70
2022-08-23T05:59:12.466Z,30.20
2022-08-23T06:01:44.462Z,26.90
2022-08-23T06:04:14.274Z,28.10
2022-08-23T06:06:44.646Z,29.70
2022-08-23T06:09:17.848Z,25.80
2022-08-23T06:14:18.110Z,26.20
2022-08-23T06:16:55.493Z,28.70
2022-08-23T06:19:25.508Z,30.60
2022-08-23T06:21:53.927Z,31.50
2022-08-23T06:24:24.039Z,30.90
2022-08-23T06:26:52.384Z,30.60
2022-08-23T06:29:22.033Z,28.00
2022-08-23T06:31:54.214Z,26.90
2022-08-23T06:34:32.993Z,23.90
2022-08-23T06:37:06.038Z,28.00
2022-08-23T06:39:37.318Z,25.80
2022-08-23T06:42:37.503Z,26.20
2022-08-23T06:45:02.405Z,26.30
2022-08-23T06:47:32.193Z,30.00
2022-08-23T06:50:03.454Z,24.40
2022-08-23T06:52:31.241Z,26.20
2022-08-23T06:55:03.993Z,29.40
2022-08-23T06:57:34.322Z,24.90
2022-08-23T07:00:02.234Z,23.70
2022-08-23T07:02:31.880Z,26.20
2022-08-23T07:05:03.451Z,22.40
2022-08-23T07:07:41.310Z,23.70
2022-08-23T07:10:15.686Z,22.50
2022-08-23T07:12:45.401Z,25.20
2022-08-23T07:15:15.193Z,23.20
2022-08-23T07:17:43.363Z,26.30
2022-08-23T07:20:13.173Z,26.10
2022-08-23T07:22:41.586Z,23.40
2022-08-23T07:25:09.524Z,21.90
2022-08-23T07:27:39.547Z,21.20
2022-08-23T07:30:11.429Z,27.60
2022-08-23T07:32:41.153Z,19.90
2022-08-23T07:35:09.274Z,21.80
2022-08-23T07:37:39.609Z,20.30
2022-08-23T07:40:10.427Z,22.90
2022-08-23T07:42:49.905Z,24.70
2022-08-23T07:45:23.063Z,19.90
2022-08-23T07:47:51.775Z,22.70
2022-08-23T07:50:21.989Z,23.00
2022-08-23T07:52:51.480Z,22.00
2022-08-23T07:55:21.472Z,20.80
2022-08-23T07:57:50.928Z,19.60
2022-08-23T08:00:20.509Z,20.90
2022-08-23T08:02:48.556Z,21.90
2022-08-23T08:05:21.792Z,19.60
2022-08-23T08:07:51.764Z,20.80
2022-08-23T08:10:20.887Z,24.10
2022-08-23T08:12:48.883Z,23.70
2022-08-23T08:15:19.518Z,27.10
2022-08-23T08:17:50.335Z,26.40
2022-08-23T08:20:21.804Z,22.80
2022-08-23T08:22:51.191Z,23.60
2022-08-23T08:25:29.271Z,19.70
2022-08-23T08:27:59.939Z,26.70
2022-08-23T08:30:28.487Z,21.40
2022-08-23T08:32:58.738Z,21.20
2022-08-23T08:35:28.828Z,19.80
2022-08-23T08:37:56.702Z,20.00
2022-08-23T08:40:33.942Z,21.00
2022-08-23T08:43:30.494Z,20.20
2022-08-23T08:46:25.961Z,21.70
2022-08-23T08:48:59.983Z,20.40
2022-08-23T08:51:58.312Z,24.10
2022-08-23T08:54:29.827Z,20.30
2022-08-23T08:57:05.863Z,23.60
2022-08-23T08:59:56.106Z,18.40
2022-08-23T09:02:32.718Z,18.20
2022-08-23T09:05:21.139Z,21.90
2022-08-23T09:08:07.115Z,18.70
2022-08-23T09:10:45.729Z,20.00
2022-08-23T09:13:46.540Z,14.40
2022-08-23T09:16:37.537Z,20.40
2022-08-23T09:19:07.458Z,19.10
2022-08-23T09:21:54.558Z,19.70
2022-08-23T09:24:24.363Z,19.10
2022-08-23T09:26:55.688Z,16.40
2022-08-23T09:29:29.265Z,18.10
2022-08-23T09:32:06.511Z,19.50
2022-08-23T09:34:38.540Z,16.50
2022-08-23T09:37:20.567Z,18.20
2022-08-23T09:40:14.192Z,16.60
2022-08-23T09:42:45.847Z,19.20
2022-08-23T09:45:38.125Z,17.40
2022-08-23T09:48:08.012Z,18.70
2022-08-23T09:50:51.201Z,21.40
2022-08-23T09:53:28.181Z,14.30
2022-08-23T09:55:58.917Z,19.90
2022-08-23T09:58:42.793Z,19.30
2022-08-23T10:01:20.444Z,21.80
2022-08-23T10:04:12.873Z,17.10
2022-08-23T10:06:44.641Z,18.10
2022-08-23T10:09:27.845Z,17.60
2022-08-23T10:11:58.680Z,16.60
2022-08-23T10:14:31.255Z,15.30
2022-08-23T10:17:19.702Z,24.10
2022-08-23T10:20:06.216Z,18.70
2022-08-23T10:22:45.369Z,18.30
2022-08-23T10:25:25.282Z,24.20
2022-08-23T10:28:43.032Z,17.40
2022-08-23T10:31:31.702Z,21.40
2022-08-23T10:34:11.815Z,20.70
2022-08-23T10:37:16.966Z,20.50
2022-08-23T10:40:03.666Z,26.40
2022-08-23T10:42:52.509Z,21.20
2022-08-23T10:45:39.321Z,26.10
2022-08-23T10:48:29.736Z,23.90
2022-08-23T10:51:11.668Z,27.20
2022-08-23T10:53:48.605Z,25.90
2022-08-23T10:56:21.090Z,31.00
2022-08-23T10:59:00.293Z,31.70
2022-08-23T11:01:57.301Z,27.70
2022-08-23T11:04:50.154Z,26.30
2022-08-23T11:07:28.420Z,34.70
2022-08-23T11:10:56.029Z,32.80
2022-08-23T11:13:29.845Z,33.20
2022-08-23T11:16:17.101Z,33.20
2022-08-23T11:18:49.720Z,27.50
2022-08-23T11:21:19.270Z,31.80
2022-08-23T11:23:55.619Z,33.80
2022-08-23T11:26:25.178Z,26.50
2022-08-23T11:29:08.090Z,35.20
2022-08-23T11:32:05.668Z,42.10
2022-08-23T11:34:43.939Z,31.40
2022-08-23T11:37:23.475Z,37.60
2022-08-23T11:39:58.704Z,39.30
2022-08-23T11:42:52.801Z,42.90
2022-08-23T11:45:23.636Z,35.00
2022-08-23T11:48:10.242Z,40.90
2022-08-23T11:50:57.779Z,29.70
2022-08-23T11:53:30.681Z,35.30
2022-08-23T11:56:26.720Z,29.50
2022-08-23T11:59:19.343Z,46.70
2022-08-23T12:01:48.178Z,52.40
2022-08-23T12:04:42.606Z,43.70
2022-08-23T12:07:13.629Z,54.80
2022-08-23T12:09:43.603Z,40.90
2022-08-23T12:12:39.440Z,49.10
2022-08-23T12:15:13.785Z,53.90
2022-08-23T12:17:42.118Z,42.90
2022-08-23T12:20:16.899Z,38.40
2022-08-23T12:23:08.160Z,41.60
2022-08-23T12:25:36.387Z,46.90
2022-08-23T12:28:29.977Z,39.40
2022-08-23T12:31:07.710Z,44.70
2022-08-23T12:33:56.814Z,43.40
2022-08-23T12:37:00.315Z,39.30
2022-08-23T12:39:51.171Z,40.90
2022-08-23T12:42:34.784Z,41.80
2022-08-23T12:45:18.102Z,29.50
2022-08-23T12:47:59.667Z,28.50
2022-08-23T12:50:39.515Z,30.30
2022-08-23T12:53:12.409Z,33.60
2022-08-23T12:55:44.803Z,29.60
2022-08-23T12:58:17.571Z,37.50
2022-08-23T13:00:57.672Z,28.10
2022-08-23T13:03:44.617Z,31.50
2022-08-23T13:06:24.571Z,29.40
2022-08-23T13:09:02.184Z,34.30
2022-08-23T13:11:34.200Z,36.70
2022-08-23T13:14:42.148Z,41.40
2022-08-23T13:17:27.455Z,28.30
2022-08-23T13:20:02.097Z,49.90
2022-08-23T13:22:39.180Z,37.30
2022-08-23T13:25:31.162Z,33.60
2022-08-23T13:28:31.442Z,33.50
2022-08-23T13:31:03.052Z,34.50
2022-08-23T13:33:31.318Z,37.80
2022-08-23T13:36:25.819Z,35.60
2022-08-23T13:38:53.689Z,49.90
2022-08-23T13:41:39.099Z,37.70
2022-08-23T13:44:18.375Z,53.70
2022-08-23T13:46:51.987Z,51.90
2022-08-23T13:49:29.185Z,66.40
2022-08-23T13:52:18.397Z,58.20
2022-08-23T13:54:53.090Z,53.20
2022-08-23T13:57:24.289Z,68.90
2022-08-23T13:59:59.148Z,66.80
2022-08-23T14:02:27.013Z,64.90
2022-08-23T14:04:54.910Z,72.40
2022-08-23T14:07:22.927Z,67.20
2022-08-23T14:09:54.865Z,71.30
2022-08-23T14:12:33.706Z,67.80
2022-08-23T14:15:06.722Z,70.40
2022-08-23T14:17:49.012Z,50.80
2022-08-23T14:20:43.289Z,57.70
2022-08-23T14:23:12.399Z,65.20
2022-08-23T14:25:44.665Z,73.30
2022-08-23T14:28:12.871Z,56.90
2022-08-23T14:30:40.845Z,64.60
2022-08-23T14:33:12.346Z,68.60
2022-08-23T14:35:40.419Z,67.90
2022-08-23T14:38:08.125Z,58.50
2022-08-23T14:40:39.471Z,62.50
2022-08-23T14:43:13.728Z,61.10
2022-08-23T14:45:45.362Z,68.40
2022-08-23T14:48:14.793Z,74.20
2022-08-23T14:50:44.395Z,76.70
2022-08-23T14:53:16.652Z,68.80
2022-08-23T14:58:16.792Z,69.70
2022-08-23T15:00:44.977Z,51.90
2022-08-23T15:03:25.001Z,46.10
2022-08-23T15:05:55.689Z,55.30
2022-08-23T15:08:26.414Z,60.20
2022-08-23T15:13:54.727Z,58.50
2022-08-23T15:16:28.622Z,45.70
2022-08-23T15:18:58.266Z,61.20
2022-08-23T15:21:30.200Z,53.30
2022-08-23T15:23:58.496Z,56.40
2022-08-23T15:26:34.637Z,60.40
2022-08-23T15:29:06.885Z,56.10
2022-08-23T15:31:38.438Z,53.30
2022-08-23T15:34:06.460Z,51.00
2022-08-23T15:36:43.885Z,56.30
2022-08-23T15:39:12.094Z,60.10
2022-08-23T15:41:39.971Z,62.10
2022-08-23T15:44:11.551Z,54.70
2022-08-23T15:46:39.798Z,49.40
2022-08-23T15:49:14.583Z,68.00
2022-08-23T15:51:44.819Z,53.50
2022-08-23T15:54:15.099Z,55.90
2022-08-23T15:56:53.328Z,65.80
2022-08-23T15:59:25.659Z,61.20
2022-08-23T16:01:53.606Z,65.70
2022-08-23T16:04:25.158Z,67.50
2022-08-23T16:06:53.158Z,56.30
2022-08-23T16:09:29.064Z,70.30
2022-08-23T16:12:00.149Z,55.60
2022-08-23T16:14:34.273Z,50.10
2022-08-23T16:17:04.878Z,58.60
2022-08-23T16:19:33.847Z,59.10
2022-08-23T16:22:04.526Z,50.40
2022-08-23T16:24:33.913Z,60.10
2022-08-23T16:27:03.220Z,62.60
2022-08-23T16:29:36.529Z,61.10
2022-08-23T16:32:08.232Z,62.00
2022-08-23T16:34:39.557Z,64.10
2022-08-23T16:37:11.667Z,65.70
2022-08-23T16:39:45.129Z,69.60
2022-08-23T16:42:13.057Z,54.90
2022-08-23T16:44:40.837Z,53.30
2022-08-23T16:47:13.459Z,57.90
2022-08-23T16:52:16.027Z,56.90
2022-08-23T16:54:51.980Z,57.50
2022-08-23T16:59:47.330Z,58.20
2022-08-23T17:02:35.209Z,60.50
2022-08-23T17:05:07.432Z,57.20
2022-08-23T17:07:39.898Z,66.70
2022-08-23T17:10:15.051Z,54.80
2022-08-23T17:12:51.521Z,64.70
2022-08-23T17:15:29.228Z,58.80
2022-08-23T17:18:02.139Z,49.80
2022-08-23T17:23:05.659Z,53.10
2022-08-23T17:25:38.730Z,63.60
2022-08-23T17:28:06.665Z,51.70
2022-08-23T17:30:40.138Z,66.00
2022-08-23T17:33:09.720Z,54.20
2022-08-23T17:35:37.545Z,47.80
2022-08-23T17:38:10.400Z,67.40
2022-08-23T17:40:42.553Z,56.10
2022-08-23T17:43:14.429Z,54.20
2022-08-23T17:45:51.130Z,59.90
2022-08-23T17:48:23.505Z,50.30
2022-08-23T17:50:51.247Z,60.00
2022-08-23T17:53:19.015Z,64.90
2022-08-23T17:55:46.926Z,53.20
2022-08-23T17:58:18.430Z,59.40
2022-08-23T18:00:46.586Z,56.50
2022-08-23T18:03:14.447Z,55.10
2022-08-23T18:05:47.680Z,65.30
2022-08-23T18:08:17.298Z,64.50
2022-08-23T18:10:45.984Z,65.40
2022-08-23T18:13:13.823Z,54.60
2022-08-23T18:15:41.580Z,61.30
2022-08-23T18:18:09.967Z,57.90
2022-08-23T18:20:41.213Z,60.50
2022-08-23T18:23:10.021Z,57.50
2022-08-23T18:25:40.251Z,55.50
2022-08-23T18:28:10.066Z,57.90
2022-08-23T18:30:54.683Z,49.30
2022-08-23T18:33:32.285Z,53.90
2022-08-23T18:36:13.814Z,47.30
2022-08-23T18:38:44.948Z,53.90
2022-08-23T18:41:14.349Z,42.50
2022-08-23T18:43:42.838Z,48.30
2022-08-23T18:46:12.331Z,49.70
2022-08-23T18:48:41.024Z,38.70
2022-08-23T18:51:17.641Z,55.90
2022-08-23T18:53:47.621Z,47.00
2022-08-23T18:56:16.209Z,43.40
2022-08-23T18:58:44.742Z,39.40
2022-08-23T19:01:26.500Z,42.00
2022-08-23T19:03:57.444Z,39.30
2022-08-23T19:06:26.294Z,48.00
2022-08-23T19:08:55.760Z,51.90
2022-08-23T19:11:25.794Z,41.60
2022-08-23T19:13:59.343Z,45.40
2022-08-23T19:16:29.872Z,50.40
2022-08-23T19:18:59.025Z,45.90
2022-08-23T19:21:27.281Z,43.90
2022-08-23T19:23:59.216Z,46.60
2022-08-23T19:26:32.096Z,42.00
2022-08-23T19:29:10.911Z,45.60
2022-08-23T19:31:46.746Z,44.90
2022-08-23T19:34:19.582Z,44.80
2022-08-23T19:36:58.068Z,48.70
2022-08-23T19:39:32.125Z,49.80
2022-08-23T19:42:11.056Z,47.70
2022-08-23T19:44:41.464Z,46.40
2022-08-23T19:47:19.457Z,45.20
2022-08-23T19:49:50.842Z,49.30
2022-08-23T19:52:24.141Z,47.20
2022-08-23T19:54:55.506Z,44.00
2022-08-23T19:57:24.045Z,47.70
2022-08-23T19:59:51.936Z,55.00
2022-08-23T20:02:22.367Z,45.50
2022-08-23T20:04:54.608Z,48.90
2022-08-23T20:07:24.633Z,50.00
2022-08-23T20:09:53.278Z,41.10
2022-08-23T20:12:21.564Z,40.40
2022-08-23T20:14:50.065Z,44.60
2022-08-23T20:17:23.268Z,42.20
2022-08-23T20:19:54.498Z,44.00
2022-08-23T20:22:41.205Z,44.60
2022-08-23T20:25:11.834Z,40.20
2022-08-23T20:27:39.920Z,40.70
2022-08-23T20:30:12.992Z,44.50
2022-08-23T20:35:14.790Z,43.20
2022-08-23T20:37:42.753Z,44.30
2022-08-23T20:40:11.060Z,41.80
2022-08-23T20:42:41.755Z,38.70
2022-08-23T20:45:11.212Z,41.50
2022-08-23T20:47:44.406Z,41.50
2022-08-23T20:50:14.664Z,34.50
2022-08-23T20:52:44.477Z,39.10
2022-08-23T20:55:18.076Z,40.30
2022-08-23T20:57:48.363Z,42.20
2022-08-23T21:00:18.953Z,36.70
2022-08-23T21:02:46.720Z,40.40
2022-08-23T21:05:15.892Z,44.20
2022-08-23T21:07:44.991Z,38.30
2022-08-23T21:10:16.105Z,46.50
2022-08-23T21:12:44.320Z,35.70
2022-08-23T21:15:15.458Z,41.80
2022-08-23T21:17:43.701Z,56.20
2022-08-23T21:20:17.059Z,40.70
2022-08-23T21:22:46.662Z,43.00
2022-08-23T21:25:17.394Z,42.30
2022-08-23T21:27:45.160Z,44.00
2022-08-23T21:30:19.322Z,41.30
2022-08-23T21:32:49.334Z,37.40
2022-08-23T21:35:19.493Z,39.10
2022-08-23T21:37:48.596Z,35.90
2022-08-23T21:40:16.439Z,38.90
2022-08-23T21:42:48.277Z,38.20
2022-08-23T21:45:16.360Z,38.10
2022-08-23T21:47:44.979Z,36.80
2022-08-23T21:50:12.883Z,36.70
2022-08-23T21:52:41.193Z,39.30
2022-08-23T21:55:09.570Z,35.40
2022-08-23T21:57:38.361Z,36.90
2022-08-23T22:00:13.985Z,36.60
2022-08-23T22:02:45.360Z,33.40
2022-08-23T22:05:15.773Z,42.40
2022-08-23T22:07:43.821Z,37.50
2022-08-23T22:10:14.599Z,42.30
2022-08-23T22:12:42.446Z,36.20
2022-08-23T22:15:14.307Z,38.40
2022-08-23T22:17:42.503Z,44.60
2022-08-23T22:20:15.145Z,39.10
2022-08-23T22:22:46.636Z,34.80
2022-08-23T22:25:14.686Z,37.40
2022-08-23T22:27:45.649Z,40.30
2022-08-23T22:30:20.216Z,45.60
2022-08-23T22:32:48.206Z,39.40
2022-08-23T22:35:19.586Z,43.90
2022-08-23T22:38:12.399Z,38.40
2022-08-23T22:40:42.435Z,37.60
2022-08-23T22:43:10.443Z,41.30
2022-08-23T22:45:44.956Z,42.80
2022-08-23T22:48:15.808Z,42.60
2022-08-23T22:50:46.822Z,48.40
2022-08-23T22:53:18.244Z,44.00
2022-08-23T22:55:53.166Z,48.80
2022-08-23T22:58:21.296Z,34.50
2022-08-23T23:00:51.535Z,41.00
2022-08-23T23:03:24.147Z,35.60
2022-08-23T23:05:52.339Z,37.60
2022-08-23T23:08:29.278Z,42.00
2022-08-23T23:11:02.532Z,42.50
2022-08-23T23:13:32.121Z,39.30
2022-08-23T23:16:03.508Z,39.10
2022-08-23T23:18:31.346Z,44.50
2022-08-23T23:21:03.408Z,35.40
2022-08-23T23:23:33.093Z,37.40
2022-08-23T23:26:03.253Z,40.00
2022-08-23T23:28:31.082Z,37.80
2022-08-23T23:31:02.442Z,35.00
2022-08-23T23:33:30.537Z,30.60
2022-08-23T23:36:02.042Z,39.60
2022-08-23T23:38:31.771Z,43.50
2022-08-23T23:41:01.887Z,34.40
2022-08-23T23:43:32.106Z,35.20
2022-08-23T23:46:06.467Z,39.10
2022-08-23T23:48:36.336Z,38.80
2022-08-23T23:51:11.865Z,41.90
2022-08-23T23:53:43.071Z,40.80
2022-08-23T23:56:15.561Z,35.50
2022-08-23T23:58:47.511Z,44.80
